sensor_id;sensor_type;location;lat;lon;timestamp;pressure;altitude;pressure_sealevel;temperature;humidity
66176;BME280;52977;44.816;20.538;2022-12-29T00:02:17;100424.88;;;5.92;67.28
66176;BME280;52977;44.816;20.538;2022-12-29T00:04:43;100460.94;;;6.13;67.31
66176;BME280;52977;44.816;20.538;2022-12-29T00:07:10;100492.88;;;6.32;67.26
66176;BME280;52977;44.816;20.538;2022-12-29T00:09:36;100504.00;;;6.36;67.42
66176;BME280;52977;44.816;20.538;2022-12-29T00:12:04;100508.63;;;6.25;67.72
66176;BME280;52977;44.816;20.538;2022-12-29T00:14:30;100499.94;;;6.28;67.48
66176;BME280;52977;44.816;20.538;2022-12-29T00:17:15;100436.81;;;5.86;67.68
66176;BME280;52977;44.816;20.538;2022-12-29T00:19:41;100485.34;;;6.24;67.93
66176;BME280;52977;44.816;20.538;2022-12-29T00:22:26;100443.34;;;6.01;67.92
66176;BME280;52977;44.816;20.538;2022-12-29T00:25:11;100509.16;;;6.37;68.21
66176;BME280;52977;44.816;20.538;2022-12-29T00:27:56;100439.00;;;5.89;68.33
66176;BME280;52977;44.816;20.538;2022-12-29T00:30:40;100504.00;;;6.36;68.09
66176;BME280;52977;44.816;20.538;2022-12-29T00:33:33;100490.47;;;6.25;68.41
66176;BME280;52977;44.816;20.538;2022-12-29T00:36:30;100483.41;;;6.19;68.06
66176;BME280;52977;44.816;20.538;2022-12-29T00:39:03;100512.94;;;6.41;67.95
66176;BME280;52977;44.816;20.538;2022-12-29T00:41:50;100511.06;;;6.37;68.04
66176;BME280;52977;44.816;20.538;2022-12-29T00:44:35;100476.13;;;6.14;67.74
66176;BME280;52977;44.816;20.538;2022-12-29T00:47:01;100511.06;;;6.37;68.04
66176;BME280;52977;44.816;20.538;2022-12-29T00:49:28;100494.00;;;6.21;68.17
66176;BME280;52977;44.816;20.538;2022-12-29T00:54:25;100512.13;;;6.41;68.41
66176;BME280;52977;44.816;20.538;2022-12-29T00:56:51;100512.38;;;6.44;68.44
66176;BME280;52977;44.816;20.538;2022-12-29T00:59:18;100521.34;;;6.40;68.49
66176;BME280;52977;44.816;20.538;2022-12-29T01:01:45;100521.38;;;6.29;69.14
66176;BME280;52977;44.816;20.538;2022-12-29T01:04:11;100482.88;;;5.65;70.38
66176;BME280;52977;44.816;20.538;2022-12-29T01:06:38;100519.72;;;5.72;71.88
66176;BME280;52977;44.816;20.538;2022-12-29T01:09:05;100440.59;;;5.23;72.31
66176;BME280;52977;44.816;20.538;2022-12-29T01:12:00;100443.72;;;4.79;74.94
66176;BME280;52977;44.816;20.538;2022-12-29T01:14:27;100486.06;;;5.21;75.74
66176;BME280;52977;44.816;20.538;2022-12-29T01:16:53;100500.75;;;5.61;74.51
66176;BME280;52977;44.816;20.538;2022-12-29T01:19:19;100505.66;;;5.85;73.16
66176;BME280;52977;44.816;20.538;2022-12-29T01:21:46;100506.19;;;5.92;71.74
66176;BME280;52977;44.816;20.538;2022-12-29T01:24:12;100505.66;;;5.90;72.04
66176;BME280;52977;44.816;20.538;2022-12-29T01:26:37;100505.06;;;5.52;73.35
66176;BME280;52977;44.816;20.538;2022-12-29T01:29:03;100499.34;;;5.28;75.06
66176;BME280;52977;44.816;20.538;2022-12-29T01:31:29;100490.13;;;5.34;74.47
66176;BME280;52977;44.816;20.538;2022-12-29T01:33:54;100500.22;;;5.70;73.89
66176;BME280;52977;44.816;20.538;2022-12-29T01:36:20;100463.38;;;5.58;73.10
66176;BME280;52977;44.816;20.538;2022-12-29T01:38:47;100324.13;;;4.67;73.12
66176;BME280;52977;44.816;20.538;2022-12-29T01:41:15;100459.84;;;5.47;73.31
66176;BME280;52977;44.816;20.538;2022-12-29T01:46:26;100491.53;;;5.68;74.40
66176;BME280;52977;44.816;20.538;2022-12-29T01:51:29;100489.81;;;5.10;77.82
66176;BME280;52977;44.816;20.538;2022-12-29T01:53:59;100474.94;;;5.18;78.38
66176;BME280;52977;44.816;20.538;2022-12-29T01:56:28;100488.47;;;5.18;78.42
66176;BME280;52977;44.816;20.538;2022-12-29T01:59:01;100491.25;;;5.33;77.75
66176;BME280;52977;44.816;20.538;2022-12-29T02:01:28;100486.09;;;5.37;78.28
66176;BME280;52977;44.816;20.538;2022-12-29T02:03:55;100489.28;;;5.13;78.98
66176;BME280;52977;44.816;20.538;2022-12-29T02:06:31;100487.38;;;5.08;79.40
66176;BME280;52977;44.816;20.538;2022-12-29T02:08:58;100492.84;;;5.34;78.71
66176;BME280;52977;44.816;20.538;2022-12-29T02:11:26;100481.78;;;5.46;77.45
66176;BME280;52977;44.816;20.538;2022-12-29T02:13:54;100455.78;;;5.50;76.54
66176;BME280;52977;44.816;20.538;2022-12-29T02:27:24;100482.44;;;4.95;79.99
66176;BME280;52977;44.816;20.538;2022-12-29T02:29:59;100476.56;;;5.13;80.05
66176;BME280;52977;44.816;20.538;2022-12-29T02:38:18;100481.53;;;5.84;76.22
66176;BME280;52977;44.816;20.538;2022-12-29T02:41:01;100492.69;;;5.97;75.81
66176;BME280;52977;44.816;20.538;2022-12-29T02:43:34;100476.94;;;6.05;75.02
66176;BME280;52977;44.816;20.538;2022-12-29T02:51:40;100414.59;;;5.33;76.13
66176;BME280;52977;44.816;20.538;2022-12-29T02:54:10;100475.22;;;5.21;78.71
66176;BME280;52977;44.816;20.538;2022-12-29T02:56:54;100428.66;;;5.04;78.31
66176;BME280;52977;44.816;20.538;2022-12-29T02:59:20;100468.47;;;5.34;78.31
66176;BME280;52977;44.816;20.538;2022-12-29T03:16:35;100469.03;;;5.93;75.64
66176;BME280;52977;44.816;20.538;2022-12-29T03:22:00;100434.38;;;5.74;75.91
66176;BME280;52977;44.816;20.538;2022-12-29T03:24:54;100449.31;;;5.97;75.99
66176;BME280;52977;44.816;20.538;2022-12-29T03:27:27;100377.81;;;5.47;76.31
66176;BME280;52977;44.816;20.538;2022-12-29T03:30:00;100465.00;;;6.11;76.66
66176;BME280;52977;44.816;20.538;2022-12-29T03:32:56;100456.88;;;6.21;76.42
66176;BME280;52977;44.816;20.538;2022-12-29T03:35:29;100459.28;;;6.23;76.83
66176;BME280;52977;44.816;20.538;2022-12-29T03:38:09;100459.28;;;6.12;76.62
66176;BME280;52977;44.816;20.538;2022-12-29T03:40:38;100445.75;;;5.61;78.26
66176;BME280;52977;44.816;20.538;2022-12-29T03:43:05;100424.88;;;5.51;78.49
66176;BME280;52977;44.816;20.538;2022-12-29T03:45:33;100454.41;;;5.73;77.85
66176;BME280;52977;44.816;20.538;2022-12-29T03:47:59;100466.06;;;5.84;78.47
66176;BME280;52977;44.816;20.538;2022-12-29T03:50:26;100427.06;;;5.75;78.13
66176;BME280;52977;44.816;20.538;2022-12-29T03:52:52;100415.69;;;5.73;77.81
66176;BME280;52977;44.816;20.538;2022-12-29T03:55:17;100420.84;;;5.54;79.15
66176;BME280;52977;44.816;20.538;2022-12-29T03:57:43;100451.97;;;5.51;79.84
66176;BME280;52977;44.816;20.538;2022-12-29T04:00:13;100455.53;;;5.57;80.91
66176;BME280;52977;44.816;20.538;2022-12-29T04:02:44;100459.06;;;5.78;79.61
66176;BME280;52977;44.816;20.538;2022-12-29T04:05:16;100475.84;;;5.90;79.46
66176;BME280;52977;44.816;20.538;2022-12-29T04:07:43;100457.41;;;5.82;80.20
66176;BME280;52977;44.816;20.538;2022-12-29T04:10:09;100461.22;;;5.81;80.34
66176;BME280;52977;44.816;20.538;2022-12-29T04:12:35;100435.47;;;5.53;80.84
66176;BME280;52977;44.816;20.538;2022-12-29T04:15:02;100465.53;;;5.77;79.39
66176;BME280;52977;44.816;20.538;2022-12-29T04:17:29;100408.66;;;5.46;78.99
66176;BME280;52977;44.816;20.538;2022-12-29T04:19:55;100468.50;;;5.86;79.11
66176;BME280;52977;44.816;20.538;2022-12-29T04:22:41;100405.94;;;5.41;79.78
66176;BME280;52977;44.816;20.538;2022-12-29T04:25:08;100472.03;;;5.91;79.71
66176;BME280;52977;44.816;20.538;2022-12-29T04:27:34;100429.75;;;5.75;79.03
66176;BME280;52977;44.816;20.538;2022-12-29T04:30:19;100441.44;;;5.75;78.61
66176;BME280;52977;44.816;20.538;2022-12-29T04:32:59;100473.66;;;5.92;78.50
66176;BME280;52977;44.816;20.538;2022-12-29T04:35:27;100398.91;;;5.60;77.85
66176;BME280;52977;44.816;20.538;2022-12-29T04:37:54;100476.13;;;6.09;77.44
66176;BME280;52977;44.816;20.538;2022-12-29T04:40:20;100480.44;;;5.95;78.50
66176;BME280;52977;44.816;20.538;2022-12-29T04:42:47;100474.75;;;5.86;78.20
66176;BME280;52977;44.816;20.538;2022-12-29T04:45:13;100476.66;;;6.06;78.11
66176;BME280;52977;44.816;20.538;2022-12-29T04:47:58;100465.00;;;6.11;77.44
66176;BME280;52977;44.816;20.538;2022-12-29T04:50:43;100382.13;;;5.38;78.02
66176;BME280;52977;44.816;20.538;2022-12-29T04:53:32;100480.44;;;5.64;79.28
66176;BME280;52977;44.816;20.538;2022-12-29T04:55:59;100459.31;;;5.56;79.50
66176;BME280;52977;44.816;20.538;2022-12-29T04:58:26;100477.72;;;5.74;78.81
66176;BME280;52977;44.816;20.538;2022-12-29T05:00:52;100480.69;;;5.83;78.83
66176;BME280;52977;44.816;20.538;2022-12-29T05:03:22;100384.28;;;5.41;78.33
66176;BME280;52977;44.816;20.538;2022-12-29T05:05:48;100437.34;;;5.93;77.57
66176;BME280;52977;44.816;20.538;2022-12-29T05:08:15;100440.63;;;5.90;77.08
66176;BME280;52977;44.816;20.538;2022-12-29T05:10:44;100447.38;;;5.93;76.94
66176;BME280;52977;44.816;20.538;2022-12-29T05:13:12;100474.22;;;6.20;76.82
66176;BME280;52977;44.816;20.538;2022-12-29T05:15:39;100496.16;;;6.39;76.52
66176;BME280;52977;44.816;20.538;2022-12-29T05:18:05;100487.50;;;6.27;77.88
66176;BME280;52977;44.816;20.538;2022-12-29T05:20:31;100489.66;;;6.14;77.92
66176;BME280;52977;44.816;20.538;2022-12-29T05:22:57;100504.84;;;6.26;77.91
66176;BME280;52977;44.816;20.538;2022-12-29T05:25:23;100448.19;;;5.93;77.72
66176;BME280;52977;44.816;20.538;2022-12-29T05:28:02;100507.25;;;6.38;77.65
66176;BME280;52977;44.816;20.538;2022-12-29T05:30:58;100485.06;;;5.74;79.22
66176;BME280;52977;44.816;20.538;2022-12-29T05:33:24;100492.88;;;5.39;81.13
66176;BME280;52977;44.816;20.538;2022-12-29T05:35:50;100515.91;;;5.47;81.65
66176;BME280;52977;44.816;20.538;2022-12-29T05:38:18;100464.41;;;5.31;82.16
66176;BME280;52977;44.816;20.538;2022-12-29T05:40:44;100504.28;;;5.82;80.58
66176;BME280;52977;44.816;20.538;2022-12-29T05:43:23;100518.09;;;5.91;80.27
66176;BME280;52977;44.816;20.538;2022-12-29T05:46:08;100512.97;;;6.05;79.99
66176;BME280;52977;44.816;20.538;2022-12-29T05:48:46;100510.00;;;6.12;79.50
66176;BME280;52977;44.816;20.538;2022-12-29T05:51:38;100509.47;;;6.10;78.87
66176;BME280;52977;44.816;20.538;2022-12-29T05:54:05;100436.56;;;5.72;79.12
66176;BME280;52977;44.816;20.538;2022-12-29T05:56:31;100520.00;;;6.37;79.00
66176;BME280;52977;44.816;20.538;2022-12-29T05:58:58;100514.31;;;6.39;78.99
66176;BME280;52977;44.816;20.538;2022-12-29T06:01:24;100524.59;;;6.42;79.54
66176;BME280;52977;44.816;20.538;2022-12-29T06:03:51;100485.84;;;6.21;79.37
66176;BME280;52977;44.816;20.538;2022-12-29T06:06:19;100506.47;;;5.96;80.84
66176;BME280;52977;44.816;20.538;2022-12-29T06:08:46;100493.19;;;5.74;80.85
66176;BME280;52977;44.816;20.538;2022-12-29T06:11:13;100456.31;;;5.52;81.48
66176;BME280;52977;44.816;20.538;2022-12-29T06:13:44;100509.41;;;5.94;81.63
66176;BME280;52977;44.816;20.538;2022-12-29T06:16:11;100486.38;;;5.97;81.12
66176;BME280;52977;44.816;20.538;2022-12-29T06:18:38;100493.72;;;6.07;81.02
66176;BME280;52977;44.816;20.538;2022-12-29T06:21:05;100516.75;;;6.30;80.92
66176;BME280;52977;44.816;20.538;2022-12-29T06:23:32;100510.81;;;6.12;81.51
66176;BME280;52977;44.816;20.538;2022-12-29T06:25:58;100528.69;;;5.88;82.49
66176;BME280;52977;44.816;20.538;2022-12-29T06:28:24;100514.31;;;5.82;82.23
66176;BME280;52977;44.816;20.538;2022-12-29T06:30:52;100434.41;;;5.48;81.30
66176;BME280;52977;44.816;20.538;2022-12-29T06:33:17;100522.47;;;6.08;80.86
66176;BME280;52977;44.816;20.538;2022-12-29T06:35:44;100530.34;;;6.04;81.41
66176;BME280;52977;44.816;20.538;2022-12-29T06:38:11;100533.00;;;5.89;82.20
66176;BME280;52977;44.816;20.538;2022-12-29T06:40:37;100480.97;;;5.61;82.03
66176;BME280;52977;44.816;20.538;2022-12-29T06:43:03;100519.22;;;5.90;81.99
66176;BME280;52977;44.816;20.538;2022-12-29T06:46:02;100510.03;;;6.02;82.17
66176;BME280;52977;44.816;20.538;2022-12-29T06:48:28;100513.50;;;6.18;82.33
66176;BME280;52977;44.816;20.538;2022-12-29T06:50:54;100530.59;;;6.28;80.81
66176;BME280;52977;44.816;20.538;2022-12-29T06:53:21;100516.47;;;5.75;82.15
66176;BME280;52977;44.816;20.538;2022-12-29T06:55:47;100550.34;;;5.93;82.83
66176;BME280;52977;44.816;20.538;2022-12-29T06:58:13;100531.06;;;5.63;82.41
66176;BME280;52977;44.816;20.538;2022-12-29T07:00:39;100530.00;;;5.75;82.54
66176;BME280;52977;44.816;20.538;2022-12-29T07:03:05;100553.38;;;6.02;82.18
66176;BME280;52977;44.816;20.538;2022-12-29T07:05:32;100521.94;;;6.01;81.21
66176;BME280;52977;44.816;20.538;2022-12-29T07:07:58;100495.38;;;5.97;81.54
66176;BME280;52977;44.816;20.538;2022-12-29T07:10:25;100547.91;;;6.43;81.41
66176;BME280;52977;44.816;20.538;2022-12-29T07:12:51;100553.34;;;6.53;81.81
66176;BME280;52977;44.816;20.538;2022-12-29T07:15:18;100508.59;;;6.40;81.31
66176;BME280;52977;44.816;20.538;2022-12-29T07:17:44;100542.19;;;6.70;80.98
66176;BME280;52977;44.816;20.538;2022-12-29T07:20:10;100541.34;;;6.75;81.27
66176;BME280;52977;44.816;20.538;2022-12-29T07:22:36;100541.84;;;6.87;80.74
66176;BME280;52977;44.816;20.538;2022-12-29T07:25:02;100477.91;;;6.55;80.23
66176;BME280;52977;44.816;20.538;2022-12-29T07:27:29;100542.06;;;7.01;80.19
66176;BME280;52977;44.816;20.538;2022-12-29T07:29:55;100532.53;;;7.09;79.68
66176;BME280;52977;44.816;20.538;2022-12-29T07:32:21;100510.91;;;6.88;79.31
66176;BME280;52977;44.816;20.538;2022-12-29T07:34:47;100513.59;;;6.93;79.14
66176;BME280;52977;44.816;20.538;2022-12-29T07:37:16;100510.38;;;6.86;79.32
66176;BME280;52977;44.816;20.538;2022-12-29T07:39:43;100501.72;;;6.84;78.73
66176;BME280;52977;44.816;20.538;2022-12-29T07:42:09;100520.97;;;6.82;79.70
66176;BME280;52977;44.816;20.538;2022-12-29T07:44:43;100529.47;;;6.50;80.87
66176;BME280;52977;44.816;20.538;2022-12-29T07:47:17;100564.97;;;6.69;82.49
66176;BME280;52977;44.816;20.538;2022-12-29T07:49:43;100554.69;;;6.61;82.85
66176;BME280;52977;44.816;20.538;2022-12-29T07:52:08;100555.47;;;6.66;83.10
66176;BME280;52977;44.816;20.538;2022-12-29T07:54:34;100547.84;;;6.74;83.18
66176;BME280;52977;44.816;20.538;2022-12-29T07:57:00;100538.63;;;6.70;82.67
66176;BME280;52977;44.816;20.538;2022-12-29T07:59:27;100532.34;;;6.84;82.64
66176;BME280;52977;44.816;20.538;2022-12-29T08:01:53;100542.59;;;7.08;81.57
66176;BME280;52977;44.816;20.538;2022-12-29T08:04:19;100479.75;;;6.75;81.40
66176;BME280;52977;44.816;20.538;2022-12-29T08:06:45;100511.09;;;7.07;80.98
66176;BME280;52977;44.816;20.538;2022-12-29T08:09:11;100534.59;;;7.32;80.49
66176;BME280;52977;44.816;20.538;2022-12-29T08:11:38;100528.06;;;7.33;80.44
66176;BME280;52977;44.816;20.538;2022-12-29T08:14:04;100504.22;;;7.25;79.70
66176;BME280;52977;44.816;20.538;2022-12-29T08:16:30;100486.56;;;7.23;79.83
66176;BME280;52977;44.816;20.538;2022-12-29T08:18:56;100515.00;;;7.41;80.12
66176;BME280;52977;44.816;20.538;2022-12-29T08:21:23;100533.09;;;7.61;80.37
66176;BME280;52977;44.816;20.538;2022-12-29T08:23:49;100531.97;;;7.62;79.92
66176;BME280;52977;44.816;20.538;2022-12-29T08:26:15;100441.88;;;7.05;79.76
66176;BME280;52977;44.816;20.538;2022-12-29T08:28:41;100512.50;;;7.49;79.12
66176;BME280;52977;44.816;20.538;2022-12-29T08:31:08;100506.31;;;7.44;79.36
66176;BME280;52977;44.816;20.538;2022-12-29T08:33:34;100524.38;;;7.59;79.50
66176;BME280;52977;44.816;20.538;2022-12-29T08:36:01;100512.28;;;7.41;79.90
66176;BME280;52977;44.816;20.538;2022-12-29T08:38:29;100541.94;;;7.77;79.79
66176;BME280;52977;44.816;20.538;2022-12-29T08:40:56;100540.81;;;7.83;79.86
66176;BME280;52977;44.816;20.538;2022-12-29T08:43:23;100472.06;;;7.43;79.36
66176;BME280;52977;44.816;20.538;2022-12-29T08:45:50;100534.81;;;7.86;79.29
66176;BME280;52977;44.816;20.538;2022-12-29T08:48:16;100532.06;;;7.91;79.52
66176;BME280;52977;44.816;20.538;2022-12-29T08:50:46;100550.47;;;7.99;79.04
66176;BME280;52977;44.816;20.538;2022-12-29T08:53:12;100527.16;;;7.88;79.07
66176;BME280;52977;44.816;20.538;2022-12-29T08:55:38;100493.03;;;7.72;78.83
66176;BME280;52977;44.816;20.538;2022-12-29T08:58:05;100474.09;;;7.61;78.50
66176;BME280;52977;44.816;20.538;2022-12-29T09:00:32;100550.69;;;8.08;78.90
66176;BME280;52977;44.816;20.538;2022-12-29T09:02:59;100526.53;;;8.01;78.36
66176;BME280;52977;44.816;20.538;2022-12-29T09:05:25;100513.03;;;7.91;78.48
66176;BME280;52977;44.816;20.538;2022-12-29T09:07:51;100537.28;;;8.17;78.79
66176;BME280;52977;44.816;20.538;2022-12-29T09:10:17;100541.34;;;8.19;78.06
66176;BME280;52977;44.816;20.538;2022-12-29T09:12:43;100505.22;;;8.14;78.17
66176;BME280;52977;44.816;20.538;2022-12-29T09:15:09;100514.91;;;8.25;79.04
66176;BME280;52977;44.816;20.538;2022-12-29T09:17:36;100472.38;;;8.05;78.54
66176;BME280;52977;44.816;20.538;2022-12-29T09:20:13;100509.63;;;8.34;78.39
66176;BME280;52977;44.816;20.538;2022-12-29T09:22:40;100513.69;;;8.36;78.26
66176;BME280;52977;44.816;20.538;2022-12-29T09:25:07;100510.41;;;8.39;78.20
66176;BME280;52977;44.816;20.538;2022-12-29T09:27:35;100506.28;;;8.42;77.68
66176;BME280;52977;44.816;20.538;2022-12-29T09:30:07;100477.56;;;8.31;77.40
66176;BME280;52977;44.816;20.538;2022-12-29T09:32:34;100511.94;;;8.51;77.52
66176;BME280;52977;44.816;20.538;2022-12-29T09:35:01;100504.06;;;8.49;77.79
66176;BME280;52977;44.816;20.538;2022-12-29T09:37:27;100500.25;;;8.50;77.81
66176;BME280;52977;44.816;20.538;2022-12-29T09:39:53;100447.41;;;8.27;77.85
66176;BME280;52977;44.816;20.538;2022-12-29T09:42:40;100490.94;;;8.57;78.00
66176;BME280;52977;44.816;20.538;2022-12-29T09:45:18;100490.88;;;8.62;77.89
66176;BME280;52977;44.816;20.538;2022-12-29T09:47:46;100476.53;;;8.56;77.49
66176;BME280;52977;44.816;20.538;2022-12-29T09:50:27;100479.34;;;8.70;77.27
66176;BME280;52977;44.816;20.538;2022-12-29T09:55:23;100469.75;;;8.78;77.81
66176;BME280;52977;44.816;20.538;2022-12-29T09:58:05;100464.00;;;8.79;77.48
66176;BME280;52977;44.816;20.538;2022-12-29T10:01:01;100448.31;;;8.71;76.93
66176;BME280;52977;44.816;20.538;2022-12-29T10:03:40;100347.78;;;8.12;77.20
66176;BME280;52977;44.816;20.538;2022-12-29T10:06:11;100458.72;;;8.88;76.88
66176;BME280;52977;44.816;20.538;2022-12-29T10:16:59;100447.38;;;9.00;77.41
66176;BME280;52977;44.816;20.538;2022-12-29T10:24:56;100447.38;;;9.00;77.47
66176;BME280;52977;44.816;20.538;2022-12-29T10:27:31;100424.72;;;8.85;77.79
66176;BME280;52977;44.816;20.538;2022-12-29T10:30:01;100427.81;;;8.98;77.46
66176;BME280;52977;44.816;20.538;2022-12-29T10:32:46;100445.28;;;9.16;77.32
66176;BME280;52977;44.816;20.538;2022-12-29T10:35:18;100452.78;;;9.24;77.08
66176;BME280;52977;44.816;20.538;2022-12-29T10:37:58;100435.25;;;9.30;76.93
66176;BME280;52977;44.816;20.538;2022-12-29T10:40:30;100421.63;;;9.30;76.71
66176;BME280;52977;44.816;20.538;2022-12-29T10:42:58;100440.03;;;9.38;77.33
66176;BME280;52977;44.816;20.538;2022-12-29T10:45:29;100428.22;;;9.43;77.22
66176;BME280;52977;44.816;20.538;2022-12-29T10:48:10;100428.75;;;9.45;78.76
66176;BME280;52977;44.816;20.538;2022-12-29T10:50:41;100421.31;;;9.51;77.78
66176;BME280;52977;44.816;20.538;2022-12-29T10:53:17;100410.50;;;9.46;78.12
66176;BME280;52977;44.816;20.538;2022-12-29T10:55:45;100399.75;;;9.35;77.94
66176;BME280;52977;44.816;20.538;2022-12-29T10:58:13;100397.69;;;9.46;77.79
66176;BME280;52977;44.816;20.538;2022-12-29T11:00:41;100386.06;;;9.40;78.04
66176;BME280;52977;44.816;20.538;2022-12-29T11:06:05;100415.53;;;9.71;78.75
66176;BME280;52977;44.816;20.538;2022-12-29T11:08:37;100408.38;;;9.75;78.88
66176;BME280;52977;44.816;20.538;2022-12-29T11:11:07;100406.38;;;9.81;78.22
66176;BME280;52977;44.816;20.538;2022-12-29T11:13:57;100405.75;;;9.84;78.03
66176;BME280;52977;44.816;20.538;2022-12-29T11:16:32;100395.16;;;9.83;78.39
66176;BME280;52977;44.816;20.538;2022-12-29T11:19:00;100398.28;;;9.90;78.14
66176;BME280;52977;44.816;20.538;2022-12-29T11:24:01;100409.31;;;9.99;78.19
66176;BME280;52977;44.816;20.538;2022-12-29T11:26:29;100397.53;;;10.03;77.83
66176;BME280;52977;44.816;20.538;2022-12-29T11:31:41;100249.16;;;9.16;77.85
66176;BME280;52977;44.816;20.538;2022-12-29T11:34:08;100376.28;;;10.00;77.83
66176;BME280;52977;44.816;20.538;2022-12-29T11:36:35;100395.19;;;10.11;77.93
66176;BME280;52977;44.816;20.538;2022-12-29T11:39:02;100394.06;;;10.12;77.81
66176;BME280;52977;44.816;20.538;2022-12-29T11:41:30;100376.91;;;10.11;78.34
66176;BME280;52977;44.816;20.538;2022-12-29T11:44:00;100357.31;;;10.09;77.89
66176;BME280;52977;44.816;20.538;2022-12-29T11:46:37;100377.22;;;10.23;77.82
66176;BME280;52977;44.816;20.538;2022-12-29T11:49:04;100392.50;;;10.38;77.39
66176;BME280;52977;44.816;20.538;2022-12-29T11:51:42;100394.31;;;10.43;77.51
66176;BME280;52977;44.816;20.538;2022-12-29T11:54:17;100398.06;;;10.47;77.57
66176;BME280;52977;44.816;20.538;2022-12-29T11:56:45;100395.22;;;10.52;76.84
66176;BME280;52977;44.816;20.538;2022-12-29T12:01:54;100335.06;;;10.16;77.27
66176;BME280;52977;44.816;20.538;2022-12-29T12:04:26;100371.97;;;10.55;78.72
66176;BME280;52977;44.816;20.538;2022-12-29T12:07:00;100370.03;;;10.69;79.63
66176;BME280;52977;44.816;20.538;2022-12-29T12:09:32;100382.00;;;10.96;78.10
66176;BME280;52977;44.816;20.538;2022-12-29T12:12:01;100388.47;;;11.00;77.21
66176;BME280;52977;44.816;20.538;2022-12-29T12:14:40;100377.63;;;10.95;77.06
66176;BME280;52977;44.816;20.538;2022-12-29T12:17:34;100363.22;;;10.81;77.51
66176;BME280;52977;44.816;20.538;2022-12-29T12:20:21;100354.34;;;10.61;78.21
66176;BME280;52977;44.816;20.538;2022-12-29T12:23:05;100322.56;;;10.42;78.10
66176;BME280;52977;44.816;20.538;2022-12-29T12:25:37;100337.91;;;10.52;78.54
66176;BME280;52977;44.816;20.538;2022-12-29T12:28:13;100367.09;;;10.66;78.73
66176;BME280;52977;44.816;20.538;2022-12-29T12:30:47;100349.31;;;10.54;79.24
66176;BME280;52977;44.816;20.538;2022-12-29T12:33:32;100308.09;;;10.42;78.66
66176;BME280;52977;44.816;20.538;2022-12-29T12:41:11;100344.22;;;10.75;79.27
66176;BME280;52977;44.816;20.538;2022-12-29T12:46:24;100331.88;;;10.78;79.39
66176;BME280;52977;44.816;20.538;2022-12-29T12:51:37;100332.94;;;10.91;79.18
66176;BME280;52977;44.816;20.538;2022-12-29T12:57:22;100313.78;;;11.27;77.78
66176;BME280;52977;44.816;20.538;2022-12-29T13:00:04;100297.28;;;11.19;77.42
66176;BME280;52977;44.816;20.538;2022-12-29T13:02:37;100330.00;;;11.55;76.74
66176;BME280;52977;44.816;20.538;2022-12-29T13:14:29;100335.75;;;11.76;76.01
66176;BME280;52977;44.816;20.538;2022-12-29T13:22:22;100336.84;;;11.44;76.84
66176;BME280;52977;44.816;20.538;2022-12-29T13:38:13;100334.06;;;11.13;79.44
66176;BME280;52977;44.816;20.538;2022-12-29T13:40:55;100323.25;;;11.07;79.91
66176;BME280;52977;44.816;20.538;2022-12-29T13:43:22;100319.53;;;11.03;80.56
66176;BME280;52977;44.816;20.538;2022-12-29T13:45:56;100307.66;;;10.85;80.85
66176;BME280;52977;44.816;20.538;2022-12-29T13:48:34;100323.16;;;10.90;81.83
66176;BME280;52977;44.816;20.538;2022-12-29T13:51:02;100341.00;;;10.96;82.36
66176;BME280;52977;44.816;20.538;2022-12-29T13:56:03;100341.53;;;10.98;82.76
66176;BME280;52977;44.816;20.538;2022-12-29T14:01:34;100342.75;;;10.92;83.53
66176;BME280;52977;44.816;20.538;2022-12-29T14:04:03;100325.47;;;10.83;84.73
66176;BME280;52977;44.816;20.538;2022-12-29T14:06:35;100335.22;;;10.75;84.71
66176;BME280;52977;44.816;20.538;2022-12-29T14:09:58;100342.84;;;10.87;85.23
66176;BME280;52977;44.816;20.538;2022-12-29T14:17:42;100289.09;;;10.51;85.12
66176;BME280;52977;44.816;20.538;2022-12-29T14:20:19;100341.25;;;10.86;85.03
66176;BME280;52977;44.816;20.538;2022-12-29T14:23:00;100323.97;;;10.76;84.61
66176;BME280;52977;44.816;20.538;2022-12-29T14:25:55;100334.81;;;10.82;84.08
66176;BME280;52977;44.816;20.538;2022-12-29T14:28:48;100341.56;;;10.84;84.29
66176;BME280;52977;44.816;20.538;2022-12-29T14:33:40;100283.63;;;10.51;84.53
66176;BME280;52977;44.816;20.538;2022-12-29T14:36:33;100338.72;;;10.89;84.29
66176;BME280;52977;44.816;20.538;2022-12-29T14:39:00;100294.81;;;10.49;83.85
66176;BME280;52977;44.816;20.538;2022-12-29T14:41:40;100344.00;;;10.86;84.04
66176;BME280;52977;44.816;20.538;2022-12-29T14:49:18;100352.97;;;10.86;83.72
66176;BME280;52977;44.816;20.538;2022-12-29T14:51:45;100346.28;;;10.92;83.02
66176;BME280;52977;44.816;20.538;2022-12-29T14:57:13;100337.09;;;10.88;82.28
66176;BME280;52977;44.816;20.538;2022-12-29T14:59:39;100340.22;;;10.96;82.21
66176;BME280;52977;44.816;20.538;2022-12-29T15:02:16;100353.88;;;10.96;82.31
66176;BME280;52977;44.816;20.538;2022-12-29T15:04:44;100338.59;;;10.94;82.32
66176;BME280;52977;44.816;20.538;2022-12-29T15:07:11;100333.44;;;10.93;82.68
66176;BME280;52977;44.816;20.538;2022-12-29T15:09:41;100335.66;;;10.91;83.02
66176;BME280;52977;44.816;20.538;2022-12-29T15:12:33;100334.56;;;10.92;83.29
66176;BME280;52977;44.816;20.538;2022-12-29T15:15:01;100345.00;;;10.90;83.31
66176;BME280;52977;44.816;20.538;2022-12-29T15:19:54;100350.75;;;10.88;81.88
66176;BME280;52977;44.816;20.538;2022-12-29T15:22:21;100316.22;;;10.70;81.58
66176;BME280;52977;44.816;20.538;2022-12-29T15:24:48;100350.16;;;10.91;80.62
66176;BME280;52977;44.816;20.538;2022-12-29T15:27:17;100332.56;;;10.84;79.72
66176;BME280;52977;44.816;20.538;2022-12-29T15:29:45;100341.13;;;10.91;79.42